sensor_id;sensor_type;location;lat;lon;timestamp;P1;durP1;ratioP1;P2;durP2;ratioP2
59366;SDS011;45163;47.690;11.770;2023-07-20T00:02:00;195.73;;;182.80;;
59366;SDS011;45163;47.690;11.770;2023-07-20T00:04:28;218.07;;;203.27;;
59366;SDS011;45163;47.690;11.770;2023-07-20T00:06:54;240.13;;;223.23;;
59366;SDS011;45163;47.690;11.770;2023-07-20T00:09:20;204.83;;;190.90;;
59366;SDS011;45163;47.690;11.770;2023-07-20T00:11:50;200.70;;;187.00;;
59366;SDS011;45163;47.690;11.770;2023-07-20T00:14:17;219.50;;;204.50;;
59366;SDS011;45163;47.690;11.770;2023-07-20T00:16:47;258.60;;;240.80;;
59366;SDS011;45163;47.690;11.770;2023-07-20T00:19:24;285.73;;;266.07;;
59366;SDS011;45163;47.690;11.770;2023-07-20T00:21:53;279.13;;;259.63;;
59366;SDS011;45163;47.690;11.770;2023-07-20T00:24:20;232.27;;;216.67;;
59366;SDS011;45163;47.690;11.770;2023-07-20T00:26:46;242.73;;;226.43;;
59366;SDS011;45163;47.690;11.770;2023-07-20T00:29:12;196.50;;;183.30;;
59366;SDS011;45163;47.690;11.770;2023-07-20T00:31:38;236.43;;;221.00;;
59366;SDS011;45163;47.690;11.770;2023-07-20T00:34:04;285.23;;;266.57;;
59366;SDS011;45163;47.690;11.770;2023-07-20T00:36:30;312.70;;;291.80;;
59366;SDS011;45163;47.690;11.770;2023-07-20T00:38:56;324.83;;;303.13;;
59366;SDS011;45163;47.690;11.770;2023-07-20T00:41:22;312.93;;;292.07;;
59366;SDS011;45163;47.690;11.770;2023-07-20T00:43:48;311.23;;;290.63;;
59366;SDS011;45163;47.690;11.770;2023-07-20T00:46:14;313.67;;;292.67;;
59366;SDS011;45163;47.690;11.770;2023-07-20T00:48:41;312.17;;;291.67;;
59366;SDS011;45163;47.690;11.770;2023-07-20T00:51:08;315.77;;;295.00;;
59366;SDS011;45163;47.690;11.770;2023-07-20T00:53:34;304.23;;;283.93;;
59366;SDS011;45163;47.690;11.770;2023-07-20T00:56:00;288.50;;;269.57;;
59366;SDS011;45163;47.690;11.770;2023-07-20T00:58:26;302.83;;;282.97;;
59366;SDS011;45163;47.690;11.770;2023-07-20T01:00:53;298.20;;;278.47;;
59366;SDS011;45163;47.690;11.770;2023-07-20T01:03:20;280.33;;;262.20;;
59366;SDS011;45163;47.690;11.770;2023-07-20T01:08:40;272.53;;;255.17;;
59366;SDS011;45163;47.690;11.770;2023-07-20T01:14:33;259.00;;;242.90;;
59366;SDS011;45163;47.690;11.770;2023-07-20T01:17:00;264.57;;;248.60;;
59366;SDS011;45163;47.690;11.770;2023-07-20T01:19:27;269.53;;;252.97;;
59366;SDS011;45163;47.690;11.770;2023-07-20T01:32:55;268.33;;;250.30;;
59366;SDS011;45163;47.690;11.770;2023-07-20T01:35:23;267.87;;;250.47;;
59366;SDS011;45163;47.690;11.770;2023-07-20T01:37:54;269.57;;;251.60;;
59366;SDS011;45163;47.690;11.770;2023-07-20T01:40:22;276.43;;;259.57;;
59366;SDS011;45163;47.690;11.770;2023-07-20T01:42:50;280.73;;;263.27;;
59366;SDS011;45163;47.690;11.770;2023-07-20T01:45:17;258.33;;;240.80;;
59366;SDS011;45163;47.690;11.770;2023-07-20T01:47:43;238.27;;;221.43;;
59366;SDS011;45163;47.690;11.770;2023-07-20T01:50:09;260.17;;;242.77;;
59366;SDS011;45163;47.690;11.770;2023-07-20T01:52:36;267.27;;;249.83;;
59366;SDS011;45163;47.690;11.770;2023-07-20T01:55:02;258.40;;;241.17;;
59366;SDS011;45163;47.690;11.770;2023-07-20T01:57:28;255.30;;;238.37;;
59366;SDS011;45163;47.690;11.770;2023-07-20T01:59:54;255.40;;;238.53;;
59366;SDS011;45163;47.690;11.770;2023-07-20T02:02:20;259.60;;;242.33;;
59366;SDS011;45163;47.690;11.770;2023-07-20T02:04:46;274.83;;;256.70;;
59366;SDS011;45163;47.690;11.770;2023-07-20T02:07:12;271.57;;;255.47;;
59366;SDS011;45163;47.690;11.770;2023-07-20T02:09:38;293.13;;;275.27;;
59366;SDS011;45163;47.690;11.770;2023-07-20T02:12:04;275.90;;;258.70;;
59366;SDS011;45163;47.690;11.770;2023-07-20T02:14:30;226.63;;;210.60;;
59366;SDS011;45163;47.690;11.770;2023-07-20T02:16:56;219.17;;;203.73;;
59366;SDS011;45163;47.690;11.770;2023-07-20T02:19:25;228.27;;;212.63;;
59366;SDS011;45163;47.690;11.770;2023-07-20T02:21:52;194.60;;;180.70;;
59366;SDS011;45163;47.690;11.770;2023-07-20T02:24:18;169.57;;;158.43;;
59366;SDS011;45163;47.690;11.770;2023-07-20T02:26:44;140.00;;;130.33;;
59366;SDS011;45163;47.690;11.770;2023-07-20T02:29:10;153.10;;;142.63;;
59366;SDS011;45163;47.690;11.770;2023-07-20T02:31:37;174.20;;;161.47;;
59366;SDS011;45163;47.690;11.770;2023-07-20T02:34:05;183.30;;;170.00;;
59366;SDS011;45163;47.690;11.770;2023-07-20T02:36:32;197.30;;;183.27;;
59366;SDS011;45163;47.690;11.770;2023-07-20T02:38:58;192.23;;;179.13;;
59366;SDS011;45163;47.690;11.770;2023-07-20T02:41:24;178.80;;;167.00;;
59366;SDS011;45163;47.690;11.770;2023-07-20T02:43:50;181.80;;;169.33;;
59366;SDS011;45163;47.690;11.770;2023-07-20T02:46:16;179.50;;;166.80;;
59366;SDS011;45163;47.690;11.770;2023-07-20T02:48:42;184.63;;;171.43;;
59366;SDS011;45163;47.690;11.770;2023-07-20T02:51:08;198.63;;;183.37;;
59366;SDS011;45163;47.690;11.770;2023-07-20T02:53:34;218.03;;;202.47;;
59366;SDS011;45163;47.690;11.770;2023-07-20T02:56:01;216.63;;;200.33;;
59366;SDS011;45163;47.690;11.770;2023-07-20T02:58:27;201.87;;;186.50;;
59366;SDS011;45163;47.690;11.770;2023-07-20T03:00:53;222.10;;;205.37;;
59366;SDS011;45163;47.690;11.770;2023-07-20T03:03:19;223.47;;;207.83;;
59366;SDS011;45163;47.690;11.770;2023-07-20T03:05:45;221.67;;;206.67;;
59366;SDS011;45163;47.690;11.770;2023-07-20T03:08:11;235.40;;;219.77;;
59366;SDS011;45163;47.690;11.770;2023-07-20T03:10:38;201.20;;;187.13;;
59366;SDS011;45163;47.690;11.770;2023-07-20T03:13:06;216.53;;;200.77;;
59366;SDS011;45163;47.690;11.770;2023-07-20T03:15:32;203.80;;;189.23;;
59366;SDS011;45163;47.690;11.770;2023-07-20T03:17:59;199.63;;;185.23;;
59366;SDS011;45163;47.690;11.770;2023-07-20T03:20:25;159.47;;;148.77;;
59366;SDS011;45163;47.690;11.770;2023-07-20T03:22:51;165.30;;;153.43;;
59366;SDS011;45163;47.690;11.770;2023-07-20T03:25:17;165.60;;;154.03;;
59366;SDS011;45163;47.690;11.770;2023-07-20T03:27:43;192.47;;;177.83;;
59366;SDS011;45163;47.690;11.770;2023-07-20T03:30:10;182.60;;;169.60;;
59366;SDS011;45163;47.690;11.770;2023-07-20T03:32:36;168.30;;;155.43;;
59366;SDS011;45163;47.690;11.770;2023-07-20T03:35:03;191.27;;;176.77;;
59366;SDS011;45163;47.690;11.770;2023-07-20T03:37:29;213.20;;;197.77;;
59366;SDS011;45163;47.690;11.770;2023-07-20T03:39:55;163.83;;;152.70;;
59366;SDS011;45163;47.690;11.770;2023-07-20T03:42:21;139.40;;;129.83;;
59366;SDS011;45163;47.690;11.770;2023-07-20T03:44:47;155.43;;;144.40;;
59366;SDS011;45163;47.690;11.770;2023-07-20T03:47:13;180.90;;;167.47;;
59366;SDS011;45163;47.690;11.770;2023-07-20T03:49:39;185.87;;;172.53;;
59366;SDS011;45163;47.690;11.770;2023-07-20T03:52:05;171.90;;;159.33;;
59366;SDS011;45163;47.690;11.770;2023-07-20T03:54:31;198.23;;;183.37;;
59366;SDS011;45163;47.690;11.770;2023-07-20T03:56:57;200.43;;;185.20;;
59366;SDS011;45163;47.690;11.770;2023-07-20T03:59:23;180.23;;;167.33;;
59366;SDS011;45163;47.690;11.770;2023-07-20T04:01:50;187.87;;;172.87;;
59366;SDS011;45163;47.690;11.770;2023-07-20T04:04:16;161.23;;;149.13;;
59366;SDS011;45163;47.690;11.770;2023-07-20T04:06:42;169.17;;;156.63;;
59366;SDS011;45163;47.690;11.770;2023-07-20T04:09:11;174.63;;;160.60;;
59366;SDS011;45163;47.690;11.770;2023-07-20T04:11:38;188.40;;;174.00;;
59366;SDS011;45163;47.690;11.770;2023-07-20T04:14:04;176.87;;;164.00;;
59366;SDS011;45163;47.690;11.770;2023-07-20T04:16:30;176.43;;;163.07;;
59366;SDS011;45163;47.690;11.770;2023-07-20T04:18:56;187.17;;;173.07;;
59366;SDS011;45163;47.690;11.770;2023-07-20T04:21:23;176.07;;;162.70;;
59366;SDS011;45163;47.690;11.770;2023-07-20T04:23:51;178.20;;;164.40;;
59366;SDS011;45163;47.690;11.770;2023-07-20T04:26:17;176.30;;;163.00;;
59366;SDS011;45163;47.690;11.770;2023-07-20T04:28:43;173.80;;;161.37;;
59366;SDS011;45163;47.690;11.770;2023-07-20T04:31:09;146.57;;;136.10;;
59366;SDS011;45163;47.690;11.770;2023-07-20T04:33:38;129.67;;;120.30;;
59366;SDS011;45163;47.690;11.770;2023-07-20T04:36:04;132.43;;;123.20;;
59366;SDS011;45163;47.690;11.770;2023-07-20T04:38:30;118.50;;;110.90;;
59366;SDS011;45163;47.690;11.770;2023-07-20T04:40:56;92.23;;;86.63;;
59366;SDS011;45163;47.690;11.770;2023-07-20T04:43:22;77.90;;;73.10;;
59366;SDS011;45163;47.690;11.770;2023-07-20T04:45:48;69.00;;;64.73;;
59366;SDS011;45163;47.690;11.770;2023-07-20T04:48:16;88.30;;;82.93;;
59366;SDS011;45163;47.690;11.770;2023-07-20T04:50:44;110.00;;;102.60;;
59366;SDS011;45163;47.690;11.770;2023-07-20T04:53:11;122.77;;;113.97;;
59366;SDS011;45163;47.690;11.770;2023-07-20T04:55:38;146.30;;;135.07;;
59366;SDS011;45163;47.690;11.770;2023-07-20T04:58:05;139.67;;;129.60;;
59366;SDS011;45163;47.690;11.770;2023-07-20T05:00:34;133.43;;;123.90;;
59366;SDS011;45163;47.690;11.770;2023-07-20T05:03:00;127.43;;;119.27;;
59366;SDS011;45163;47.690;11.770;2023-07-20T05:05:27;97.27;;;90.90;;
59366;SDS011;45163;47.690;11.770;2023-07-20T05:07:52;83.53;;;78.37;;
59366;SDS011;45163;47.690;11.770;2023-07-20T05:10:21;75.60;;;70.93;;
59366;SDS011;45163;47.690;11.770;2023-07-20T05:12:47;56.97;;;53.47;;
59366;SDS011;45163;47.690;11.770;2023-07-20T05:15:13;73.93;;;69.47;;
59366;SDS011;45163;47.690;11.770;2023-07-20T05:17:40;76.67;;;72.13;;
59366;SDS011;45163;47.690;11.770;2023-07-20T05:20:06;75.17;;;70.77;;
59366;SDS011;45163;47.690;11.770;2023-07-20T05:22:32;134.27;;;126.47;;
59366;SDS011;45163;47.690;11.770;2023-07-20T05:24:59;48.90;;;45.83;;
59366;SDS011;45163;47.690;11.770;2023-07-20T05:27:25;417.27;;;385.37;;
59366;SDS011;45163;47.690;11.770;2023-07-20T05:29:51;43.37;;;40.73;;
59366;SDS011;45163;47.690;11.770;2023-07-20T05:32:17;56.77;;;53.37;;
59366;SDS011;45163;47.690;11.770;2023-07-20T05:34:43;73.20;;;68.97;;
59366;SDS011;45163;47.690;11.770;2023-07-20T05:37:09;73.37;;;69.30;;
59366;SDS011;45163;47.690;11.770;2023-07-20T05:39:35;76.70;;;72.37;;
59366;SDS011;45163;47.690;11.770;2023-07-20T05:42:01;65.00;;;61.20;;
59366;SDS011;45163;47.690;11.770;2023-07-20T05:44:27;64.20;;;60.40;;
59366;SDS011;45163;47.690;11.770;2023-07-20T05:46:53;62.40;;;58.73;;
59366;SDS011;45163;47.690;11.770;2023-07-20T05:49:19;57.40;;;54.10;;
59366;SDS011;45163;47.690;11.770;2023-07-20T05:51:45;34.70;;;32.53;;
59366;SDS011;45163;47.690;11.770;2023-07-20T05:54:12;48.23;;;45.47;;
59366;SDS011;45163;47.690;11.770;2023-07-20T05:56:38;40.97;;;38.67;;
59366;SDS011;45163;47.690;11.770;2023-07-20T05:59:04;41.63;;;39.13;;
59366;SDS011;45163;47.690;11.770;2023-07-20T06:01:30;41.47;;;39.07;;
59366;SDS011;45163;47.690;11.770;2023-07-20T06:03:56;33.70;;;31.70;;
59366;SDS011;45163;47.690;11.770;2023-07-20T06:06:22;34.87;;;32.90;;
59366;SDS011;45163;47.690;11.770;2023-07-20T06:08:48;38.40;;;36.17;;
59366;SDS011;45163;47.690;11.770;2023-07-20T06:11:14;35.80;;;33.77;;
59366;SDS011;45163;47.690;11.770;2023-07-20T06:13:40;38.90;;;36.73;;
59366;SDS011;45163;47.690;11.770;2023-07-20T06:16:06;39.67;;;37.37;;
59366;SDS011;45163;47.690;11.770;2023-07-20T06:18:32;38.67;;;36.27;;
59366;SDS011;45163;47.690;11.770;2023-07-20T06:20:57;41.27;;;38.77;;
59366;SDS011;45163;47.690;11.770;2023-07-20T06:23:24;56.53;;;53.13;;
59366;SDS011;45163;47.690;11.770;2023-07-20T06:25:50;48.73;;;45.87;;
59366;SDS011;45163;47.690;11.770;2023-07-20T06:28:16;51.53;;;48.43;;
59366;SDS011;45163;47.690;11.770;2023-07-20T06:30:43;47.10;;;44.37;;
59366;SDS011;45163;47.690;11.770;2023-07-20T06:33:09;40.07;;;37.63;;
59366;SDS011;45163;47.690;11.770;2023-07-20T06:35:35;42.63;;;40.10;;
59366;SDS011;45163;47.690;11.770;2023-07-20T06:38:01;52.37;;;49.17;;
59366;SDS011;45163;47.690;11.770;2023-07-20T06:40:29;42.63;;;40.13;;
59366;SDS011;45163;47.690;11.770;2023-07-20T06:42:56;44.57;;;41.90;;
59366;SDS011;45163;47.690;11.770;2023-07-20T06:45:23;57.67;;;53.97;;
59366;SDS011;45163;47.690;11.770;2023-07-20T06:47:49;69.30;;;64.87;;
59366;SDS011;45163;47.690;11.770;2023-07-20T06:50:14;123.03;;;115.77;;
59366;SDS011;45163;47.690;11.770;2023-07-20T06:52:40;116.47;;;109.57;;
59366;SDS011;45163;47.690;11.770;2023-07-20T06:55:07;73.53;;;69.17;;
59366;SDS011;45163;47.690;11.770;2023-07-20T06:57:33;67.97;;;63.97;;
59366;SDS011;45163;47.690;11.770;2023-07-20T06:59:59;59.97;;;56.33;;
59366;SDS011;45163;47.690;11.770;2023-07-20T07:02:25;66.40;;;62.20;;
59366;SDS011;45163;47.690;11.770;2023-07-20T07:04:51;75.17;;;70.63;;
59366;SDS011;45163;47.690;11.770;2023-07-20T07:07:17;83.50;;;78.20;;
59366;SDS011;45163;47.690;11.770;2023-07-20T07:09:43;78.63;;;73.73;;
59366;SDS011;45163;47.690;11.770;2023-07-20T07:12:09;98.33;;;92.43;;
59366;SDS011;45163;47.690;11.770;2023-07-20T07:14:35;118.50;;;110.83;;
59366;SDS011;45163;47.690;11.770;2023-07-20T07:17:01;150.83;;;141.10;;
59366;SDS011;45163;47.690;11.770;2023-07-20T07:19:27;187.87;;;176.33;;
59366;SDS011;45163;47.690;11.770;2023-07-20T07:21:53;149.23;;;140.00;;
59366;SDS011;45163;47.690;11.770;2023-07-20T07:24:19;139.90;;;131.57;;
59366;SDS011;45163;47.690;11.770;2023-07-20T07:26:45;93.30;;;87.83;;
59366;SDS011;45163;47.690;11.770;2023-07-20T07:29:11;101.37;;;95.33;;
59366;SDS011;45163;47.690;11.770;2023-07-20T07:31:37;100.13;;;94.23;;
59366;SDS011;45163;47.690;11.770;2023-07-20T07:34:04;98.10;;;92.40;;
59366;SDS011;45163;47.690;11.770;2023-07-20T07:36:30;125.87;;;118.17;;
59366;SDS011;45163;47.690;11.770;2023-07-20T07:38:57;136.07;;;127.73;;
59366;SDS011;45163;47.690;11.770;2023-07-20T07:41:23;134.40;;;126.30;;
59366;SDS011;45163;47.690;11.770;2023-07-20T07:43:49;120.47;;;113.43;;
59366;SDS011;45163;47.690;11.770;2023-07-20T07:46:15;127.33;;;119.57;;
59366;SDS011;45163;47.690;11.770;2023-07-20T07:48:42;109.90;;;103.40;;
59366;SDS011;45163;47.690;11.770;2023-07-20T07:51:08;125.73;;;118.10;;
59366;SDS011;45163;47.690;11.770;2023-07-20T07:53:34;140.30;;;131.63;;
59366;SDS011;45163;47.690;11.770;2023-07-20T07:56:02;117.20;;;110.27;;
59366;SDS011;45163;47.690;11.770;2023-07-20T07:58:29;145.50;;;136.83;;
59366;SDS011;45163;47.690;11.770;2023-07-20T08:00:55;195.20;;;183.07;;
59366;SDS011;45163;47.690;11.770;2023-07-20T08:03:21;134.83;;;126.13;;
59366;SDS011;45163;47.690;11.770;2023-07-20T08:05:49;175.97;;;165.40;;
59366;SDS011;45163;47.690;11.770;2023-07-20T08:08:15;173.93;;;164.67;;
59366;SDS011;45163;47.690;11.770;2023-07-20T08:10:43;231.17;;;217.80;;
59366;SDS011;45163;47.690;11.770;2023-07-20T08:13:09;243.67;;;229.23;;
59366;SDS011;45163;47.690;11.770;2023-07-20T08:15:35;149.70;;;141.33;;
59366;SDS011;45163;47.690;11.770;2023-07-20T08:18:01;132.97;;;125.27;;
59366;SDS011;45163;47.690;11.770;2023-07-20T08:20:27;211.23;;;199.43;;
59366;SDS011;45163;47.690;11.770;2023-07-20T08:22:54;136.23;;;128.00;;
59366;SDS011;45163;47.690;11.770;2023-07-20T08:25:20;148.40;;;139.90;;
59366;SDS011;45163;47.690;11.770;2023-07-20T08:27:47;150.10;;;141.47;;
59366;SDS011;45163;47.690;11.770;2023-07-20T08:30:13;188.37;;;177.80;;
59366;SDS011;45163;47.690;11.770;2023-07-20T08:32:39;160.10;;;151.13;;
59366;SDS011;45163;47.690;11.770;2023-07-20T08:35:06;87.87;;;81.93;;
59366;SDS011;45163;47.690;11.770;2023-07-20T08:37:32;109.70;;;102.20;;
59366;SDS011;45163;47.690;11.770;2023-07-20T08:39:58;117.13;;;109.47;;
59366;SDS011;45163;47.690;11.770;2023-07-20T08:42:24;123.83;;;116.20;;
59366;SDS011;45163;47.690;11.770;2023-07-20T08:44:52;106.60;;;100.77;;
59366;SDS011;45163;47.690;11.770;2023-07-20T08:47:18;60.17;;;56.67;;
59366;SDS011;45163;47.690;11.770;2023-07-20T08:49:48;61.77;;;58.13;;
59366;SDS011;45163;47.690;11.770;2023-07-20T08:52:14;33.00;;;31.13;;
59366;SDS011;45163;47.690;11.770;2023-07-20T08:54:41;63.80;;;60.13;;
59366;SDS011;45163;47.690;11.770;2023-07-20T08:57:07;111.87;;;105.60;;
59366;SDS011;45163;47.690;11.770;2023-07-20T08:59:34;122.93;;;115.80;;
59366;SDS011;45163;47.690;11.770;2023-07-20T09:02:02;63.10;;;59.50;;
59366;SDS011;45163;47.690;11.770;2023-07-20T09:04:30;41.42;;;39.13;;
59366;SDS011;45163;47.690;11.770;2023-07-20T09:06:56;38.47;;;36.33;;
59366;SDS011;45163;47.690;11.770;2023-07-20T09:09:23;39.33;;;37.07;;
59366;SDS011;45163;47.690;11.770;2023-07-20T09:11:49;65.15;;;61.42;;
59366;SDS011;45163;47.690;11.770;2023-07-20T09:14:15;46.90;;;44.25;;
59366;SDS011;45163;47.690;11.770;2023-07-20T09:16:52;31.95;;;29.83;;
59366;SDS011;45163;47.690;11.770;2023-07-20T09:19:20;48.72;;;45.75;;
59366;SDS011;45163;47.690;11.770;2023-07-20T09:21:48;24.48;;;23.08;;
59366;SDS011;45163;47.690;11.770;2023-07-20T09:24:16;29.67;;;27.92;;
59366;SDS011;45163;47.690;11.770;2023-07-20T09:26:44;92.43;;;87.40;;
59366;SDS011;45163;47.690;11.770;2023-07-20T09:29:11;63.58;;;59.88;;
59366;SDS011;45163;47.690;11.770;2023-07-20T09:31:37;90.35;;;85.20;;
59366;SDS011;45163;47.690;11.770;2023-07-20T09:34:06;63.67;;;59.83;;
59366;SDS011;45163;47.690;11.770;2023-07-20T09:36:33;59.75;;;56.15;;
59366;SDS011;45163;47.690;11.770;2023-07-20T09:39:01;42.50;;;39.90;;
59366;SDS011;45163;47.690;11.770;2023-07-20T09:41:29;24.08;;;22.75;;
59366;SDS011;45163;47.690;11.770;2023-07-20T09:43:55;15.45;;;14.55;;
59366;SDS011;45163;47.690;11.770;2023-07-20T09:46:21;14.68;;;13.88;;
59366;SDS011;45163;47.690;11.770;2023-07-20T09:48:53;92.78;;;87.72;;
59366;SDS011;45163;47.690;11.770;2023-07-20T09:51:21;106.40;;;100.75;;
59366;SDS011;45163;47.690;11.770;2023-07-20T09:53:49;71.45;;;67.47;;
59366;SDS011;45163;47.690;11.770;2023-07-20T09:56:16;38.15;;;35.90;;
59366;SDS011;45163;47.690;11.770;2023-07-20T09:58:45;42.75;;;40.28;;
59366;SDS011;45163;47.690;11.770;2023-07-20T10:01:11;38.65;;;36.40;;
59366;SDS011;45163;47.690;11.770;2023-07-20T10:03:39;62.60;;;58.97;;
59366;SDS011;45163;47.690;11.770;2023-07-20T10:06:08;135.05;;;127.32;;
59366;SDS011;45163;47.690;11.770;2023-07-20T10:08:38;165.80;;;156.57;;
59366;SDS011;45163;47.690;11.770;2023-07-20T10:11:06;125.53;;;118.60;;
59366;SDS011;45163;47.690;11.770;2023-07-20T10:13:33;103.15;;;97.47;;
59366;SDS011;45163;47.690;11.770;2023-07-20T10:16:04;86.78;;;81.97;;
59366;SDS011;45163;47.690;11.770;2023-07-20T10:18:46;86.15;;;81.18;;
59366;SDS011;45163;47.690;11.770;2023-07-20T10:21:17;48.45;;;45.78;;
59366;SDS011;45163;47.690;11.770;2023-07-20T10:23:46;27.80;;;26.30;;
59366;SDS011;45163;47.690;11.770;2023-07-20T10:26:12;19.70;;;18.50;;
59366;SDS011;45163;47.690;11.770;2023-07-20T10:28:39;23.85;;;22.55;;
59366;SDS011;45163;47.690;11.770;2023-07-20T10:31:09;27.88;;;26.35;;
59366;SDS011;45163;47.690;11.770;2023-07-20T10:33:37;20.13;;;19.02;;
59366;SDS011;45163;47.690;11.770;2023-07-20T10:36:06;19.58;;;18.20;;
59366;SDS011;45163;47.690;11.770;2023-07-20T10:38:39;14.50;;;13.63;;
59366;SDS011;45163;47.690;11.770;2023-07-20T10:41:16;36.42;;;34.33;;
59366;SDS011;45163;47.690;11.770;2023-07-20T10:43:46;48.92;;;46.17;;
59366;SDS011;45163;47.690;11.770;2023-07-20T10:46:13;144.35;;;136.25;;
59366;SDS011;45163;47.690;11.770;2023-07-20T10:49:13;207.13;;;195.45;;
59366;SDS011;45163;47.690;11.770;2023-07-20T10:51:46;159.02;;;150.20;;
59366;SDS011;45163;47.690;11.770;2023-07-20T10:56:47;66.28;;;62.58;;
59366;SDS011;45163;47.690;11.770;2023-07-20T10:59:17;79.65;;;75.43;;
59366;SDS011;45163;47.690;11.770;2023-07-20T11:01:48;60.78;;;57.50;;
59366;SDS011;45163;47.690;11.770;2023-07-20T11:04:17;75.72;;;71.60;;
59366;SDS011;45163;47.690;11.770;2023-07-20T11:06:45;94.65;;;89.53;;
59366;SDS011;45163;47.690;11.770;2023-07-20T11:09:12;138.13;;;130.75;;
59366;SDS011;45163;47.690;11.770;2023-07-20T11:11:43;127.90;;;120.15;;
59366;SDS011;45163;47.690;11.770;2023-07-20T11:14:10;106.97;;;100.63;;
59366;SDS011;45163;47.690;11.770;2023-07-20T11:16:47;134.90;;;126.40;;
59366;SDS011;45163;47.690;11.770;2023-07-20T11:19:21;161.57;;;151.20;;
59366;SDS011;45163;47.690;11.770;2023-07-20T11:21:51;152.05;;;143.48;;
59366;SDS011;45163;47.690;11.770;2023-07-20T11:24:23;83.10;;;78.78;;
59366;SDS011;45163;47.690;11.770;2023-07-20T11:26:50;67.85;;;64.25;;
59366;SDS011;45163;47.690;11.770;2023-07-20T11:29:17;68.55;;;64.93;;
59366;SDS011;45163;47.690;11.770;2023-07-20T11:31:45;51.42;;;48.65;;
59366;SDS011;45163;47.690;11.770;2023-07-20T11:34:12;50.80;;;48.10;;
59366;SDS011;45163;47.690;11.770;2023-07-20T11:36:43;75.72;;;71.75;;
59366;SDS011;45163;47.690;11.770;2023-07-20T11:39:13;74.78;;;70.65;;
59366;SDS011;45163;47.690;11.770;2023-07-20T11:41:44;71.20;;;67.35;;
59366;SDS011;45163;47.690;11.770;2023-07-20T11:44:13;87.05;;;82.22;;
59366;SDS011;45163;47.690;11.770;2023-07-20T11:46:43;90.18;;;85.32;;
59366;SDS011;45163;47.690;11.770;2023-07-20T11:49:10;64.75;;;61.25;;
59366;SDS011;45163;47.690;11.770;2023-07-20T11:51:37;33.42;;;31.63;;
59366;SDS011;45163;47.690;11.770;2023-07-20T11:54:07;23.42;;;22.00;;
59366;SDS011;45163;47.690;11.770;2023-07-20T11:56:34;16.52;;;15.30;;
59366;SDS011;45163;47.690;11.770;2023-07-20T11:59:00;16.55;;;15.65;;
59366;SDS011;45163;47.690;11.770;2023-07-20T12:01:27;30.17;;;28.42;;
59366;SDS011;45163;47.690;11.770;2023-07-20T12:03:55;38.95;;;36.85;;
59366;SDS011;45163;47.690;11.770;2023-07-20T12:06:23;53.78;;;50.47;;
59366;SDS011;45163;47.690;11.770;2023-07-20T12:08:50;58.08;;;54.67;;
59366;SDS011;45163;47.690;11.770;2023-07-20T12:11:33;31.77;;;29.95;;
59366;SDS011;45163;47.690;11.770;2023-07-20T12:13:59;28.45;;;26.90;;
59366;SDS011;45163;47.690;11.770;2023-07-20T12:16:29;25.50;;;24.08;;
59366;SDS011;45163;47.690;11.770;2023-07-20T12:21:37;31.27;;;29.50;;
59366;SDS011;45163;47.690;11.770;2023-07-20T12:24:05;29.02;;;27.33;;
59366;SDS011;45163;47.690;11.770;2023-07-20T12:26:33;31.17;;;29.27;;
59366;SDS011;45163;47.690;11.770;2023-07-20T12:28:59;19.58;;;18.48;;
59366;SDS011;45163;47.690;11.770;2023-07-20T12:31:26;43.63;;;41.15;;
59366;SDS011;45163;47.690;11.770;2023-07-20T12:33:53;95.45;;;90.35;;
59366;SDS011;45163;47.690;11.770;2023-07-20T12:36:22;148.18;;;140.23;;
59366;SDS011;45163;47.690;11.770;2023-07-20T12:38:49;47.53;;;44.92;;
59366;SDS011;45163;47.690;11.770;2023-07-20T12:41:15;29.92;;;28.20;;
59366;SDS011;45163;47.690;11.770;2023-07-20T12:43:42;12.60;;;11.90;;
59366;SDS011;45163;47.690;11.770;2023-07-20T12:46:11;8.45;;;7.95;;
59366;SDS011;45163;47.690;11.770;2023-07-20T12:48:39;8.43;;;7.93;;
59366;SDS011;45163;47.690;11.770;2023-07-20T12:51:07;12.90;;;12.10;;
59366;SDS011;45163;47.690;11.770;2023-07-20T12:53:34;36.88;;;34.78;;
59366;SDS011;45163;47.690;11.770;2023-07-20T12:56:01;50.55;;;47.65;;
59366;SDS011;45163;47.690;11.770;2023-07-20T12:58:27;56.72;;;53.42;;
59366;SDS011;45163;47.690;11.770;2023-07-20T13:00:53;39.30;;;36.90;;
59366;SDS011;45163;47.690;11.770;2023-07-20T13:03:19;27.65;;;26.10;;
59366;SDS011;45163;47.690;11.770;2023-07-20T13:05:46;21.70;;;20.45;;
59366;SDS011;45163;47.690;11.770;2023-07-20T13:08:13;29.17;;;27.55;;
59366;SDS011;45163;47.690;11.770;2023-07-20T13:10:39;34.38;;;32.45;;
59366;SDS011;45163;47.690;11.770;2023-07-20T13:13:05;35.50;;;33.55;;
59366;SDS011;45163;47.690;11.770;2023-07-20T13:15:32;24.25;;;22.85;;
59366;SDS011;45163;47.690;11.770;2023-07-20T13:18:05;37.13;;;34.97;;
59366;SDS011;45163;47.690;11.770;2023-07-20T13:20:32;52.40;;;49.42;;
59366;SDS011;45163;47.690;11.770;2023-07-20T13:22:58;46.30;;;43.70;;
59366;SDS011;45163;47.690;11.770;2023-07-20T13:25:24;44.88;;;42.33;;
59366;SDS011;45163;47.690;11.770;2023-07-20T13:27:50;45.05;;;42.58;;
59366;SDS011;45163;47.690;11.770;2023-07-20T13:30:16;43.50;;;41.05;;
59366;SDS011;45163;47.690;11.770;2023-07-20T13:32:43;63.80;;;60.30;;
59366;SDS011;45163;47.690;11.770;2023-07-20T13:35:10;69.63;;;65.80;;
59366;SDS011;45163;47.690;11.770;2023-07-20T13:37:39;104.13;;;98.38;;
59366;SDS011;45163;47.690;11.770;2023-07-20T13:40:05;129.35;;;122.25;;
59366;SDS011;45163;47.690;11.770;2023-07-20T13:42:32;134.43;;;126.82;;
59366;SDS011;45163;47.690;11.770;2023-07-20T13:44:58;131.48;;;124.22;;
59366;SDS011;45163;47.690;11.770;2023-07-20T13:47:25;96.57;;;91.15;;
59366;SDS011;45163;47.690;11.770;2023-07-20T13:49:51;67.93;;;64.28;;
59366;SDS011;45163;47.690;11.770;2023-07-20T13:52:17;62.92;;;59.38;;
59366;SDS011;45163;47.690;11.770;2023-07-20T13:54:43;61.58;;;58.08;;
59366;SDS011;45163;47.690;11.770;2023-07-20T13:57:10;52.85;;;49.85;;
59366;SDS011;45163;47.690;11.770;2023-07-20T13:59:35;48.42;;;45.70;;
59366;SDS011;45163;47.690;11.770;2023-07-20T14:02:02;45.92;;;43.38;;
59366;SDS011;45163;47.690;11.770;2023-07-20T14:04:29;49.17;;;46.45;;
59366;SDS011;45163;47.690;11.770;2023-07-20T14:06:55;74.38;;;70.35;;
59366;SDS011;45163;47.690;11.770;2023-07-20T14:09:21;93.63;;;88.53;;
59366;SDS011;45163;47.690;11.770;2023-07-20T14:11:47;111.05;;;104.68;;
59366;SDS011;45163;47.690;11.770;2023-07-20T14:14:13;110.43;;;104.20;;
59366;SDS011;45163;47.690;11.770;2023-07-20T14:16:39;84.28;;;79.60;;
59366;SDS011;45163;47.690;11.770;2023-07-20T14:19:05;99.40;;;93.70;;